sensor_id;sensor_type;location;lat;lon;timestamp;temperature;humidity
9760;DHT22;4919;48.792;9.202;2022-12-07T00:01:21;2.30;99.90
9760;DHT22;4919;48.792;9.202;2022-12-07T00:03:51;2.40;99.90
9760;DHT22;4919;48.792;9.202;2022-12-07T00:06:19;2.40;99.90
9760;DHT22;4919;48.792;9.202;2022-12-07T00:08:47;2.30;99.90
9760;DHT22;4919;48.792;9.202;2022-12-07T00:11:16;2.30;99.90
9760;DHT22;4919;48.792;9.202;2022-12-07T00:13:44;2.30;99.90
9760;DHT22;4919;48.792;9.202;2022-12-07T00:16:14;2.30;99.90
9760;DHT22;4919;48.792;9.202;2022-12-07T00:18:42;2.30;99.90
9760;DHT22;4919;48.792;9.202;2022-12-07T00:21:13;2.30;99.90
9760;DHT22;4919;48.792;9.202;2022-12-07T00:23:42;2.30;99.90
9760;DHT22;4919;48.792;9.202;2022-12-07T00:26:17;2.30;99.90
9760;DHT22;4919;48.792;9.202;2022-12-07T00:28:48;2.20;99.90
9760;DHT22;4919;48.792;9.202;2022-12-07T00:31:17;2.20;99.90
9760;DHT22;4919;48.792;9.202;2022-12-07T00:33:44;2.10;99.90
9760;DHT22;4919;48.792;9.202;2022-12-07T00:36:15;2.10;99.90
9760;DHT22;4919;48.792;9.202;2022-12-07T00:38:47;2.00;99.90
9760;DHT22;4919;48.792;9.202;2022-12-07T00:41:19;2.00;99.90
9760;DHT22;4919;48.792;9.202;2022-12-07T00:43:48;2.00;99.90
9760;DHT22;4919;48.792;9.202;2022-12-07T00:46:16;1.90;99.90
9760;DHT22;4919;48.792;9.202;2022-12-07T00:48:44;1.90;99.90
9760;DHT22;4919;48.792;9.202;2022-12-07T00:51:15;1.90;99.90
9760;DHT22;4919;48.792;9.202;2022-12-07T00:53:42;1.80;99.90
9760;DHT22;4919;48.792;9.202;2022-12-07T00:56:12;1.70;99.90
9760;DHT22;4919;48.792;9.202;2022-12-07T00:58:39;1.70;99.90
9760;DHT22;4919;48.792;9.202;2022-12-07T01:01:07;1.70;99.90
9760;DHT22;4919;48.792;9.202;2022-12-07T01:03:35;1.60;99.90
9760;DHT22;4919;48.792;9.202;2022-12-07T01:06:04;1.50;99.90
9760;DHT22;4919;48.792;9.202;2022-12-07T01:08:31;1.50;99.90
9760;DHT22;4919;48.792;9.202;2022-12-07T01:11:07;1.50;99.90
9760;DHT22;4919;48.792;9.202;2022-12-07T01:13:34;1.60;99.90
9760;DHT22;4919;48.792;9.202;2022-12-07T01:16:04;1.50;99.90
9760;DHT22;4919;48.792;9.202;2022-12-07T01:18:34;1.60;99.90
9760;DHT22;4919;48.792;9.202;2022-12-07T01:21:06;1.50;99.90
9760;DHT22;4919;48.792;9.202;2022-12-07T01:23:36;1.60;99.90
9760;DHT22;4919;48.792;9.202;2022-12-07T01:26:05;1.50;99.90
9760;DHT22;4919;48.792;9.202;2022-12-07T01:28:33;1.50;99.90
9760;DHT22;4919;48.792;9.202;2022-12-07T01:31:01;1.50;99.90
9760;DHT22;4919;48.792;9.202;2022-12-07T01:33:31;1.50;99.90
9760;DHT22;4919;48.792;9.202;2022-12-07T01:36:16;1.50;99.90
9760;DHT22;4919;48.792;9.202;2022-12-07T01:38:44;1.50;99.90
9760;DHT22;4919;48.792;9.202;2022-12-07T01:41:12;1.60;99.90
9760;DHT22;4919;48.792;9.202;2022-12-07T01:44:09;1.50;99.90
9760;DHT22;4919;48.792;9.202;2022-12-07T01:46:37;1.50;99.90
9760;DHT22;4919;48.792;9.202;2022-12-07T01:49:12;1.50;99.90
9760;DHT22;4919;48.792;9.202;2022-12-07T01:51:42;1.50;99.90
9760;DHT22;4919;48.792;9.202;2022-12-07T01:54:11;1.50;99.90
9760;DHT22;4919;48.792;9.202;2022-12-07T01:56:41;1.50;99.90
9760;DHT22;4919;48.792;9.202;2022-12-07T01:59:09;1.50;99.90
9760;DHT22;4919;48.792;9.202;2022-12-07T02:01:36;1.40;99.90
9760;DHT22;4919;48.792;9.202;2022-12-07T02:04:03;1.40;99.90
9760;DHT22;4919;48.792;9.202;2022-12-07T02:06:31;1.40;99.90
9760;DHT22;4919;48.792;9.202;2022-12-07T02:08:57;1.40;99.90
9760;DHT22;4919;48.792;9.202;2022-12-07T02:11:24;1.50;99.90
9760;DHT22;4919;48.792;9.202;2022-12-07T02:13:51;1.40;99.90
9760;DHT22;4919;48.792;9.202;2022-12-07T02:22:34;1.30;99.90
9760;DHT22;4919;48.792;9.202;2022-12-07T02:28:34;1.30;99.90
9760;DHT22;4919;48.792;9.202;2022-12-07T02:31:11;1.20;99.90
9760;DHT22;4919;48.792;9.202;2022-12-07T02:33:50;1.30;99.90
9760;DHT22;4919;48.792;9.202;2022-12-07T02:36:21;1.20;99.90
9760;DHT22;4919;48.792;9.202;2022-12-07T02:39:00;1.10;99.90
9760;DHT22;4919;48.792;9.202;2022-12-07T02:41:40;1.10;99.90
9760;DHT22;4919;48.792;9.202;2022-12-07T02:44:10;1.10;99.90
9760;DHT22;4919;48.792;9.202;2022-12-07T02:46:47;1.10;99.90
9760;DHT22;4919;48.792;9.202;2022-12-07T02:49:16;1.10;99.90
9760;DHT22;4919;48.792;9.202;2022-12-07T02:51:44;1.10;99.90
9760;DHT22;4919;48.792;9.202;2022-12-07T02:54:14;1.10;99.90
9760;DHT22;4919;48.792;9.202;2022-12-07T03:07:24;1.00;99.90
9760;DHT22;4919;48.792;9.202;2022-12-07T03:15:20;1.00;99.90
9760;DHT22;4919;48.792;9.202;2022-12-07T03:17:49;1.00;99.90
9760;DHT22;4919;48.792;9.202;2022-12-07T03:20:20;1.00;99.90
9760;DHT22;4919;48.792;9.202;2022-12-07T03:22:48;1.00;99.90
9760;DHT22;4919;48.792;9.202;2022-12-07T03:25:17;1.10;99.90
9760;DHT22;4919;48.792;9.202;2022-12-07T03:27:57;1.10;99.90
9760;DHT22;4919;48.792;9.202;2022-12-07T03:30:41;1.10;99.90
9760;DHT22;4919;48.792;9.202;2022-12-07T03:33:33;1.10;99.90
9760;DHT22;4919;48.792;9.202;2022-12-07T03:36:09;1.10;99.90
9760;DHT22;4919;48.792;9.202;2022-12-07T03:38:42;1.10;99.90
9760;DHT22;4919;48.792;9.202;2022-12-07T03:41:16;1.10;99.90
9760;DHT22;4919;48.792;9.202;2022-12-07T03:43:46;1.10;99.90
9760;DHT22;4919;48.792;9.202;2022-12-07T03:49:34;1.20;99.90
9760;DHT22;4919;48.792;9.202;2022-12-07T03:54:46;1.10;99.90
9760;DHT22;4919;48.792;9.202;2022-12-07T03:57:14;1.20;99.90
9760;DHT22;4919;48.792;9.202;2022-12-07T03:59:42;1.20;99.90
9760;DHT22;4919;48.792;9.202;2022-12-07T04:02:11;1.10;99.90
9760;DHT22;4919;48.792;9.202;2022-12-07T04:04:39;1.10;99.90
9760;DHT22;4919;48.792;9.202;2022-12-07T04:07:06;1.20;99.90
9760;DHT22;4919;48.792;9.202;2022-12-07T04:09:33;1.20;99.90
9760;DHT22;4919;48.792;9.202;2022-12-07T04:12:00;1.20;99.90
9760;DHT22;4919;48.792;9.202;2022-12-07T04:14:27;1.20;99.90
9760;DHT22;4919;48.792;9.202;2022-12-07T04:16:56;1.20;99.90
9760;DHT22;4919;48.792;9.202;2022-12-07T04:19:26;1.20;99.90
9760;DHT22;4919;48.792;9.202;2022-12-07T04:21:54;1.20;99.90
9760;DHT22;4919;48.792;9.202;2022-12-07T04:24:21;1.20;99.90
9760;DHT22;4919;48.792;9.202;2022-12-07T04:26:49;1.10;99.90
9760;DHT22;4919;48.792;9.202;2022-12-07T04:29:17;1.10;99.90
9760;DHT22;4919;48.792;9.202;2022-12-07T04:31:45;1.00;99.90
9760;DHT22;4919;48.792;9.202;2022-12-07T04:34:12;1.00;99.90
9760;DHT22;4919;48.792;9.202;2022-12-07T04:36:39;0.90;99.90
9760;DHT22;4919;48.792;9.202;2022-12-07T04:39:09;0.90;99.90
9760;DHT22;4919;48.792;9.202;2022-12-07T04:41:40;1.00;99.90
9760;DHT22;4919;48.792;9.202;2022-12-07T04:44:07;1.00;99.90
9760;DHT22;4919;48.792;9.202;2022-12-07T04:46:34;1.00;99.90
9760;DHT22;4919;48.792;9.202;2022-12-07T04:49:01;1.00;99.90
9760;DHT22;4919;48.792;9.202;2022-12-07T04:51:29;1.00;99.90
9760;DHT22;4919;48.792;9.202;2022-12-07T04:53:56;1.10;99.90
9760;DHT22;4919;48.792;9.202;2022-12-07T04:56:23;1.10;99.90
9760;DHT22;4919;48.792;9.202;2022-12-07T04:58:52;1.20;99.90
9760;DHT22;4919;48.792;9.202;2022-12-07T05:01:20;1.30;99.90
9760;DHT22;4919;48.792;9.202;2022-12-07T05:03:48;1.30;99.90
9760;DHT22;4919;48.792;9.202;2022-12-07T05:06:15;1.30;99.90
9760;DHT22;4919;48.792;9.202;2022-12-07T05:08:42;1.40;99.90
9760;DHT22;4919;48.792;9.202;2022-12-07T05:11:10;1.40;99.90
9760;DHT22;4919;48.792;9.202;2022-12-07T05:14:02;1.40;99.90
9760;DHT22;4919;48.792;9.202;2022-12-07T05:16:29;1.50;99.90
9760;DHT22;4919;48.792;9.202;2022-12-07T05:18:56;1.50;99.90
9760;DHT22;4919;48.792;9.202;2022-12-07T05:21:23;1.50;99.90
9760;DHT22;4919;48.792;9.202;2022-12-07T05:23:50;1.60;99.90
9760;DHT22;4919;48.792;9.202;2022-12-07T05:26:17;1.60;99.90
9760;DHT22;4919;48.792;9.202;2022-12-07T05:28:44;1.60;99.90
9760;DHT22;4919;48.792;9.202;2022-12-07T05:31:11;1.60;99.90
9760;DHT22;4919;48.792;9.202;2022-12-07T05:33:38;1.60;99.90
9760;DHT22;4919;48.792;9.202;2022-12-07T05:36:05;1.70;99.90
9760;DHT22;4919;48.792;9.202;2022-12-07T05:38:33;1.70;99.90
9760;DHT22;4919;48.792;9.202;2022-12-07T05:41:02;1.70;99.90
9760;DHT22;4919;48.792;9.202;2022-12-07T05:43:29;1.70;99.90
9760;DHT22;4919;48.792;9.202;2022-12-07T05:45:57;1.70;99.90
9760;DHT22;4919;48.792;9.202;2022-12-07T05:48:24;1.70;99.90
9760;DHT22;4919;48.792;9.202;2022-12-07T05:50:52;1.70;99.90
9760;DHT22;4919;48.792;9.202;2022-12-07T05:53:19;1.70;99.90
9760;DHT22;4919;48.792;9.202;2022-12-07T05:55:49;1.80;99.90
9760;DHT22;4919;48.792;9.202;2022-12-07T05:58:16;1.80;99.90
9760;DHT22;4919;48.792;9.202;2022-12-07T06:01:01;1.80;99.90
9760;DHT22;4919;48.792;9.202;2022-12-07T06:03:28;1.90;99.90
9760;DHT22;4919;48.792;9.202;2022-12-07T06:05:55;1.90;99.90
9760;DHT22;4919;48.792;9.202;2022-12-07T06:08:22;2.00;99.90
9760;DHT22;4919;48.792;9.202;2022-12-07T06:10:49;2.00;99.90
9760;DHT22;4919;48.792;9.202;2022-12-07T06:13:39;2.00;99.90
9760;DHT22;4919;48.792;9.202;2022-12-07T06:16:12;2.10;99.90
9760;DHT22;4919;48.792;9.202;2022-12-07T06:18:40;2.10;99.90
9760;DHT22;4919;48.792;9.202;2022-12-07T06:21:07;2.10;99.90
9760;DHT22;4919;48.792;9.202;2022-12-07T06:23:33;2.10;99.90
9760;DHT22;4919;48.792;9.202;2022-12-07T06:26:00;2.10;99.90
9760;DHT22;4919;48.792;9.202;2022-12-07T06:28:27;2.20;99.90
9760;DHT22;4919;48.792;9.202;2022-12-07T06:31:01;2.10;99.90
9760;DHT22;4919;48.792;9.202;2022-12-07T06:33:29;2.20;99.90
9760;DHT22;4919;48.792;9.202;2022-12-07T06:35:56;2.20;99.90
9760;DHT22;4919;48.792;9.202;2022-12-07T06:38:22;2.20;99.90
9760;DHT22;4919;48.792;9.202;2022-12-07T06:40:49;2.20;99.90
9760;DHT22;4919;48.792;9.202;2022-12-07T06:43:16;2.20;99.90
9760;DHT22;4919;48.792;9.202;2022-12-07T06:45:43;2.20;99.90
9760;DHT22;4919;48.792;9.202;2022-12-07T06:48:10;2.30;99.90
9760;DHT22;4919;48.792;9.202;2022-12-07T06:50:37;2.30;99.90
9760;DHT22;4919;48.792;9.202;2022-12-07T06:53:04;2.30;99.90
9760;DHT22;4919;48.792;9.202;2022-12-07T06:55:31;2.40;99.90
9760;DHT22;4919;48.792;9.202;2022-12-07T06:57:57;2.50;99.90
9760;DHT22;4919;48.792;9.202;2022-12-07T07:00:24;2.60;99.90
9760;DHT22;4919;48.792;9.202;2022-12-07T07:02:51;2.50;99.90
9760;DHT22;4919;48.792;9.202;2022-12-07T07:05:18;2.60;99.90
9760;DHT22;4919;48.792;9.202;2022-12-07T07:07:49;2.50;99.90
9760;DHT22;4919;48.792;9.202;2022-12-07T07:10:36;2.60;99.90
9760;DHT22;4919;48.792;9.202;2022-12-07T07:13:04;2.60;99.90
9760;DHT22;4919;48.792;9.202;2022-12-07T07:15:32;2.60;99.90
9760;DHT22;4919;48.792;9.202;2022-12-07T07:17:59;2.60;99.90
9760;DHT22;4919;48.792;9.202;2022-12-07T07:20:33;2.70;99.90
9760;DHT22;4919;48.792;9.202;2022-12-07T07:23:00;2.70;99.90
9760;DHT22;4919;48.792;9.202;2022-12-07T07:25:27;2.70;99.90
9760;DHT22;4919;48.792;9.202;2022-12-07T07:27:54;2.80;99.90
9760;DHT22;4919;48.792;9.202;2022-12-07T07:30:21;2.70;99.90
9760;DHT22;4919;48.792;9.202;2022-12-07T07:32:48;2.80;99.90
9760;DHT22;4919;48.792;9.202;2022-12-07T07:35:15;2.80;99.90
9760;DHT22;4919;48.792;9.202;2022-12-07T07:37:42;2.80;99.90
9760;DHT22;4919;48.792;9.202;2022-12-07T07:40:10;2.90;99.90
9760;DHT22;4919;48.792;9.202;2022-12-07T07:42:38;2.90;99.90
9760;DHT22;4919;48.792;9.202;2022-12-07T07:45:05;2.90;99.90
9760;DHT22;4919;48.792;9.202;2022-12-07T07:47:32;2.90;99.90
9760;DHT22;4919;48.792;9.202;2022-12-07T07:49:59;3.00;99.90
9760;DHT22;4919;48.792;9.202;2022-12-07T07:52:26;3.00;99.90
9760;DHT22;4919;48.792;9.202;2022-12-07T07:54:53;3.00;99.90
9760;DHT22;4919;48.792;9.202;2022-12-07T07:57:19;3.00;99.90
9760;DHT22;4919;48.792;9.202;2022-12-07T07:59:46;3.00;99.90
9760;DHT22;4919;48.792;9.202;2022-12-07T08:02:15;3.00;99.90
9760;DHT22;4919;48.792;9.202;2022-12-07T08:04:43;3.00;99.90
9760;DHT22;4919;48.792;9.202;2022-12-07T08:07:10;3.10;99.90
9760;DHT22;4919;48.792;9.202;2022-12-07T08:09:37;3.00;99.90
9760;DHT22;4919;48.792;9.202;2022-12-07T08:12:05;3.00;99.90
9760;DHT22;4919;48.792;9.202;2022-12-07T08:14:32;3.10;99.90
9760;DHT22;4919;48.792;9.202;2022-12-07T08:16:59;3.10;99.90
9760;DHT22;4919;48.792;9.202;2022-12-07T08:19:26;3.10;99.90
9760;DHT22;4919;48.792;9.202;2022-12-07T08:21:53;3.10;99.90
9760;DHT22;4919;48.792;9.202;2022-12-07T08:24:22;3.20;99.90
9760;DHT22;4919;48.792;9.202;2022-12-07T08:26:49;3.20;99.90
9760;DHT22;4919;48.792;9.202;2022-12-07T08:29:17;3.20;99.90
9760;DHT22;4919;48.792;9.202;2022-12-07T08:31:44;3.20;99.90
9760;DHT22;4919;48.792;9.202;2022-12-07T08:34:12;3.30;99.90
9760;DHT22;4919;48.792;9.202;2022-12-07T08:36:39;3.30;99.90
9760;DHT22;4919;48.792;9.202;2022-12-07T08:39:06;3.30;99.90
9760;DHT22;4919;48.792;9.202;2022-12-07T08:41:53;3.30;99.90
9760;DHT22;4919;48.792;9.202;2022-12-07T08:44:20;3.30;99.90
9760;DHT22;4919;48.792;9.202;2022-12-07T08:46:53;3.30;99.90
9760;DHT22;4919;48.792;9.202;2022-12-07T08:49:33;3.30;99.90
9760;DHT22;4919;48.792;9.202;2022-12-07T08:52:02;3.30;99.90
9760;DHT22;4919;48.792;9.202;2022-12-07T08:54:30;3.30;99.90
9760;DHT22;4919;48.792;9.202;2022-12-07T08:57:00;3.30;99.90
9760;DHT22;4919;48.792;9.202;2022-12-07T08:59:27;3.40;99.90
9760;DHT22;4919;48.792;9.202;2022-12-07T09:01:55;3.40;99.90
9760;DHT22;4919;48.792;9.202;2022-12-07T09:04:22;3.40;99.90
9760;DHT22;4919;48.792;9.202;2022-12-07T09:06:48;3.40;99.90
9760;DHT22;4919;48.792;9.202;2022-12-07T09:09:16;3.30;99.90
9760;DHT22;4919;48.792;9.202;2022-12-07T09:11:42;3.40;99.90
9760;DHT22;4919;48.792;9.202;2022-12-07T09:14:12;3.30;99.90
9760;DHT22;4919;48.792;9.202;2022-12-07T09:16:39;3.30;99.90
9760;DHT22;4919;48.792;9.202;2022-12-07T09:19:07;3.30;99.90
9760;DHT22;4919;48.792;9.202;2022-12-07T09:21:34;3.30;99.90
9760;DHT22;4919;48.792;9.202;2022-12-07T09:24:01;3.30;99.90
9760;DHT22;4919;48.792;9.202;2022-12-07T09:26:28;3.30;99.90
9760;DHT22;4919;48.792;9.202;2022-12-07T09:28:55;3.30;99.90
9760;DHT22;4919;48.792;9.202;2022-12-07T09:31:22;3.30;99.90
9760;DHT22;4919;48.792;9.202;2022-12-07T09:33:59;3.30;99.90
9760;DHT22;4919;48.792;9.202;2022-12-07T09:36:27;3.20;99.90
9760;DHT22;4919;48.792;9.202;2022-12-07T09:38:54;3.20;99.90
9760;DHT22;4919;48.792;9.202;2022-12-07T09:41:23;3.20;99.90
9760;DHT22;4919;48.792;9.202;2022-12-07T09:43:51;3.20;99.90
9760;DHT22;4919;48.792;9.202;2022-12-07T09:46:19;3.30;99.90
9760;DHT22;4919;48.792;9.202;2022-12-07T09:48:48;3.30;99.90
9760;DHT22;4919;48.792;9.202;2022-12-07T09:53:51;3.30;99.90
9760;DHT22;4919;48.792;9.202;2022-12-07T09:56:19;3.30;99.90
9760;DHT22;4919;48.792;9.202;2022-12-07T09:58:47;3.30;99.90
9760;DHT22;4919;48.792;9.202;2022-12-07T10:01:18;3.30;99.90
9760;DHT22;4919;48.792;9.202;2022-12-07T10:03:51;3.40;99.90
9760;DHT22;4919;48.792;9.202;2022-12-07T10:06:18;3.40;99.90
9760;DHT22;4919;48.792;9.202;2022-12-07T10:08:45;3.40;99.90
9760;DHT22;4919;48.792;9.202;2022-12-07T10:11:13;3.30;99.90
9760;DHT22;4919;48.792;9.202;2022-12-07T10:13:47;3.30;99.90
9760;DHT22;4919;48.792;9.202;2022-12-07T10:18:52;3.30;99.90
9760;DHT22;4919;48.792;9.202;2022-12-07T10:21:20;3.30;99.90
9760;DHT22;4919;48.792;9.202;2022-12-07T10:24:08;3.30;99.90
9760;DHT22;4919;48.792;9.202;2022-12-07T10:29:17;3.20;99.90
9760;DHT22;4919;48.792;9.202;2022-12-07T10:31:54;3.20;99.90
9760;DHT22;4919;48.792;9.202;2022-12-07T10:34:23;3.20;99.90
9760;DHT22;4919;48.792;9.202;2022-12-07T10:36:52;3.30;99.90
9760;DHT22;4919;48.792;9.202;2022-12-07T10:39:21;3.30;99.90
9760;DHT22;4919;48.792;9.202;2022-12-07T10:41:57;3.30;99.90
9760;DHT22;4919;48.792;9.202;2022-12-07T10:44:27;3.40;99.90
9760;DHT22;4919;48.792;9.202;2022-12-07T11:00:36;3.60;99.90
9760;DHT22;4919;48.792;9.202;2022-12-07T11:14:10;3.60;99.90
9760;DHT22;4919;48.792;9.202;2022-12-07T11:16:55;3.60;99.90
9760;DHT22;4919;48.792;9.202;2022-12-07T11:25:32;3.70;99.90
9760;DHT22;4919;48.792;9.202;2022-12-07T11:33:21;3.80;99.90
9760;DHT22;4919;48.792;9.202;2022-12-07T11:36:43;3.90;99.90
9760;DHT22;4919;48.792;9.202;2022-12-07T11:38:58;3.90;99.90
9760;DHT22;4919;48.792;9.202;2022-12-07T11:41:31;3.90;99.90
9760;DHT22;4919;48.792;9.202;2022-12-07T11:46:47;3.80;99.90
9760;DHT22;4919;48.792;9.202;2022-12-07T11:49:27;3.80;99.90
9760;DHT22;4919;48.792;9.202;2022-12-07T11:51:59;3.80;99.90
9760;DHT22;4919;48.792;9.202;2022-12-07T11:54:32;3.90;99.90
9760;DHT22;4919;48.792;9.202;2022-12-07T11:57:05;3.90;99.90
9760;DHT22;4919;48.792;9.202;2022-12-07T11:59:47;3.90;99.90
9760;DHT22;4919;48.792;9.202;2022-12-07T12:02:28;3.90;99.90
9760;DHT22;4919;48.792;9.202;2022-12-07T12:05:17;3.90;99.90
9760;DHT22;4919;48.792;9.202;2022-12-07T12:07:47;3.90;99.90
9760;DHT22;4919;48.792;9.202;2022-12-07T12:19:11;4.00;99.90
9760;DHT22;4919;48.792;9.202;2022-12-07T12:21:41;4.00;99.90
9760;DHT22;4919;48.792;9.202;2022-12-07T12:24:18;4.00;99.90
9760;DHT22;4919;48.792;9.202;2022-12-07T12:26:51;4.00;99.90
9760;DHT22;4919;48.792;9.202;2022-12-07T12:29:31;4.00;99.90
9760;DHT22;4919;48.792;9.202;2022-12-07T12:32:21;4.00;99.90
9760;DHT22;4919;48.792;9.202;2022-12-07T12:42:48;4.10;99.90
9760;DHT22;4919;48.792;9.202;2022-12-07T12:47:56;4.20;99.90
9760;DHT22;4919;48.792;9.202;2022-12-07T12:50:28;4.20;99.90
9760;DHT22;4919;48.792;9.202;2022-12-07T12:53:02;4.20;99.90
9760;DHT22;4919;48.792;9.202;2022-12-07T13:00:46;4.40;99.90
9760;DHT22;4919;48.792;9.202;2022-12-07T13:03:29;4.40;99.90
9760;DHT22;4919;48.792;9.202;2022-12-07T13:08:58;4.40;99.90
9760;DHT22;4919;48.792;9.202;2022-12-07T13:11:32;4.40;99.90
9760;DHT22;4919;48.792;9.202;2022-12-07T13:20:01;4.50;99.90
9760;DHT22;4919;48.792;9.202;2022-12-07T13:28:11;4.40;99.90
9760;DHT22;4919;48.792;9.202;2022-12-07T13:31:19;4.40;99.90
9760;DHT22;4919;48.792;9.202;2022-12-07T13:33:37;4.40;99.90
9760;DHT22;4919;48.792;9.202;2022-12-07T13:36:04;4.40;99.90
9760;DHT22;4919;48.792;9.202;2022-12-07T13:38:36;4.30;99.90
9760;DHT22;4919;48.792;9.202;2022-12-07T13:41:15;4.30;99.90
9760;DHT22;4919;48.792;9.202;2022-12-07T13:43:48;4.30;99.90
9760;DHT22;4919;48.792;9.202;2022-12-07T13:46:18;4.30;99.90
9760;DHT22;4919;48.792;9.202;2022-12-07T13:48:48;4.30;99.90
9760;DHT22;4919;48.792;9.202;2022-12-07T13:51:19;4.30;99.90
9760;DHT22;4919;48.792;9.202;2022-12-07T13:53:52;4.20;99.90
9760;DHT22;4919;48.792;9.202;2022-12-07T13:56:22;4.20;99.90
9760;DHT22;4919;48.792;9.202;2022-12-07T13:58:49;4.20;99.90
9760;DHT22;4919;48.792;9.202;2022-12-07T14:01:16;4.20;99.90
9760;DHT22;4919;48.792;9.202;2022-12-07T14:03:43;4.20;99.90
9760;DHT22;4919;48.792;9.202;2022-12-07T14:06:15;4.20;99.90
9760;DHT22;4919;48.792;9.202;2022-12-07T14:08:43;4.20;99.90
9760;DHT22;4919;48.792;9.202;2022-12-07T14:11:17;4.10;99.90
9760;DHT22;4919;48.792;9.202;2022-12-07T14:14:05;4.10;99.90
9760;DHT22;4919;48.792;9.202;2022-12-07T14:16:35;4.10;99.90
9760;DHT22;4919;48.792;9.202;2022-12-07T14:19:04;4.10;99.90
9760;DHT22;4919;48.792;9.202;2022-12-07T14:21:33;4.10;99.90
9760;DHT22;4919;48.792;9.202;2022-12-07T14:24:16;4.10;99.90
9760;DHT22;4919;48.792;9.202;2022-12-07T14:26:46;4.10;99.90
9760;DHT22;4919;48.792;9.202;2022-12-07T14:29:30;4.10;99.90
9760;DHT22;4919;48.792;9.202;2022-12-07T14:35:00;4.10;99.90
9760;DHT22;4919;48.792;9.202;2022-12-07T14:37:29;4.10;99.90
9760;DHT22;4919;48.792;9.202;2022-12-07T14:39:56;4.10;99.90
9760;DHT22;4919;48.792;9.202;2022-12-07T14:42:27;4.00;99.90
9760;DHT22;4919;48.792;9.202;2022-12-07T14:44:54;4.00;99.90
9760;DHT22;4919;48.792;9.202;2022-12-07T14:47:22;4.00;99.90
9760;DHT22;4919;48.792;9.202;2022-12-07T14:50:12;4.00;99.90
9760;DHT22;4919;48.792;9.202;2022-12-07T14:52:39;3.90;99.90
9760;DHT22;4919;48.792;9.202;2022-12-07T14:55:29;3.90;99.90
9760;DHT22;4919;48.792;9.202;2022-12-07T14:57:58;3.80;99.90
9760;DHT22;4919;48.792;9.202;2022-12-07T15:00:26;3.80;99.90
9760;DHT22;4919;48.792;9.202;2022-12-07T15:02:54;3.80;99.90
9760;DHT22;4919;48.792;9.202;2022-12-07T15:05:22;3.80;99.90
9760;DHT22;4919;48.792;9.202;2022-12-07T15:07:49;3.80;99.90
9760;DHT22;4919;48.792;9.202;2022-12-07T15:10:22;3.70;99.90
9760;DHT22;4919;48.792;9.202;2022-12-07T15:12:50;3.70;99.90
9760;DHT22;4919;48.792;9.202;2022-12-07T15:15:17;3.60;99.90
9760;DHT22;4919;48.792;9.202;2022-12-07T15:17:44;3.50;99.90
9760;DHT22;4919;48.792;9.202;2022-12-07T15:20:13;3.50;99.90
9760;DHT22;4919;48.792;9.202;2022-12-07T15:22:40;3.40;99.90
9760;DHT22;4919;48.792;9.202;2022-12-07T15:25:09;3.40;99.90
9760;DHT22;4919;48.792;9.202;2022-12-07T15:27:38;3.40;99.90
9760;DHT22;4919;48.792;9.202;2022-12-07T15:30:06;3.30;99.90
9760;DHT22;4919;48.792;9.202;2022-12-07T15:32:33;3.30;99.90
9760;DHT22;4919;48.792;9.202;2022-12-07T15:35:00;3.30;99.90
9760;DHT22;4919;48.792;9.202;2022-12-07T15:37:28;3.20;99.90
9760;DHT22;4919;48.792;9.202;2022-12-07T15:39:54;3.20;99.90
9760;DHT22;4919;48.792;9.202;2022-12-07T15:42:21;3.20;99.90
9760;DHT22;4919;48.792;9.202;2022-12-07T15:44:48;3.10;99.90
9760;DHT22;4919;48.792;9.202;2022-12-07T15:47:35;3.00;99.90
9760;DHT22;4919;48.792;9.202;2022-12-07T15:50:23;3.00;99.90
9760;DHT22;4919;48.792;9.202;2022-12-07T15:52:49;3.00;99.90
9760;DHT22;4919;48.792;9.202;2022-12-07T15:55:16;3.00;99.90
9760;DHT22;4919;48.792;9.202;2022-12-07T15:57:43;3.00;99.90
9760;DHT22;4919;48.792;9.202;2022-12-07T16:00:11;3.00;99.90
9760;DHT22;4919;48.792;9.202;2022-12-07T16:02:39;2.90;99.90
9760;DHT22;4919;48.792;9.202;2022-12-07T16:05:06;2.90;99.90
9760;DHT22;4919;48.792;9.202;2022-12-07T16:07:33;2.90;99.90
9760;DHT22;4919;48.792;9.202;2022-12-07T16:10:00;2.90;99.90
9760;DHT22;4919;48.792;9.202;2022-12-07T16:12:26;2.80;99.90
9760;DHT22;4919;48.792;9.202;2022-12-07T16:14:53;2.80;99.90
9760;DHT22;4919;48.792;9.202;2022-12-07T16:17:20;2.80;99.90
9760;DHT22;4919;48.792;9.202;2022-12-07T16:19:47;2.80;99.90
9760;DHT22;4919;48.792;9.202;2022-12-07T16:22:14;2.80;99.90
9760;DHT22;4919;48.792;9.202;2022-12-07T16:24:41;2.80;99.90
9760;DHT22;4919;48.792;9.202;2022-12-07T16:27:07;2.80;99.90
9760;DHT22;4919;48.792;9.202;2022-12-07T16:29:34;2.80;99.90
9760;DHT22;4919;48.792;9.202;2022-12-07T16:32:01;2.80;99.90
9760;DHT22;4919;48.792;9.202;2022-12-07T16:34:28;2.80;99.90
9760;DHT22;4919;48.792;9.202;2022-12-07T16:36:55;2.70;99.90
9760;DHT22;4919;48.792;9.202;2022-12-07T16:39:32;2.70;99.90
9760;DHT22;4919;48.792;9.202;2022-12-07T16:41:59;2.70;99.90
9760;DHT22;4919;48.792;9.202;2022-12-07T16:44:27;2.80;99.90
9760;DHT22;4919;48.792;9.202;2022-12-07T16:46:54;2.70;99.90
9760;DHT22;4919;48.792;9.202;2022-12-07T16:49:21;2.70;99.90
9760;DHT22;4919;48.792;9.202;2022-12-07T16:51:51;2.70;99.90
9760;DHT22;4919;48.792;9.202;2022-12-07T16:54:37;2.70;99.90
9760;DHT22;4919;48.792;9.202;2022-12-07T16:57:04;2.70;99.90
9760;DHT22;4919;48.792;9.202;2022-12-07T16:59:31;2.60;99.90
9760;DHT22;4919;48.792;9.202;2022-12-07T17:01:58;2.60;99.90
9760;DHT22;4919;48.792;9.202;2022-12-07T17:04:25;2.60;99.90
9760;DHT22;4919;48.792;9.202;2022-12-07T17:06:52;2.60;99.90
9760;DHT22;4919;48.792;9.202;2022-12-07T17:09:19;2.60;99.90
9760;DHT22;4919;48.792;9.202;2022-12-07T17:11:47;2.60;99.90
9760;DHT22;4919;48.792;9.202;2022-12-07T17:14:15;2.50;99.90
9760;DHT22;4919;48.792;9.202;2022-12-07T17:17:01;2.50;99.90
9760;DHT22;4919;48.792;9.202;2022-12-07T17:19:28;2.50;99.90
9760;DHT22;4919;48.792;9.202;2022-12-07T17:21:54;2.50;99.90
9760;DHT22;4919;48.792;9.202;2022-12-07T17:24:21;2.50;99.90
9760;DHT22;4919;48.792;9.202;2022-12-07T17:26:48;2.50;99.90
9760;DHT22;4919;48.792;9.202;2022-12-07T17:29:17;2.50;99.90
9760;DHT22;4919;48.792;9.202;2022-12-07T17:31:45;2.60;99.90
9760;DHT22;4919;48.792;9.202;2022-12-07T17:34:17;2.60;99.90
9760;DHT22;4919;48.792;9.202;2022-12-07T17:36:44;2.50;99.90
9760;DHT22;4919;48.792;9.202;2022-12-07T17:39:17;2.50;99.90
9760;DHT22;4919;48.792;9.202;2022-12-07T17:41:44;2.40;99.90
9760;DHT22;4919;48.792;9.202;2022-12-07T17:44:30;2.40;99.90
9760;DHT22;4919;48.792;9.202;2022-12-07T17:46:57;2.30;99.90
9760;DHT22;4919;48.792;9.202;2022-12-07T17:49:25;2.30;99.90
9760;DHT22;4919;48.792;9.202;2022-12-07T17:51:53;2.30;99.90
9760;DHT22;4919;48.792;9.202;2022-12-07T17:54:39;2.30;99.90
9760;DHT22;4919;48.792;9.202;2022-12-07T17:57:06;2.20;99.90
9760;DHT22;4919;48.792;9.202;2022-12-07T17:59:32;2.20;99.90
9760;DHT22;4919;48.792;9.202;2022-12-07T18:01:59;2.20;99.90
9760;DHT22;4919;48.792;9.202;2022-12-07T18:04:26;2.20;99.90
9760;DHT22;4919;48.792;9.202;2022-12-07T18:06:53;2.10;99.90
9760;DHT22;4919;48.792;9.202;2022-12-07T18:09:20;2.10;99.90
9760;DHT22;4919;48.792;9.202;2022-12-07T18:11:48;2.10;99.90
9760;DHT22;4919;48.792;9.202;2022-12-07T18:14:15;2.10;99.90
9760;DHT22;4919;48.792;9.202;2022-12-07T18:16:42;2.10;99.90
9760;DHT22;4919;48.792;9.202;2022-12-07T18:19:10;2.00;99.90
9760;DHT22;4919;48.792;9.202;2022-12-07T18:21:39;2.00;99.90
9760;DHT22;4919;48.792;9.202;2022-12-07T18:24:09;1.90;99.90
9760;DHT22;4919;48.792;9.202;2022-12-07T18:26:36;2.00;99.90
9760;DHT22;4919;48.792;9.202;2022-12-07T18:29:04;1.90;99.90
9760;DHT22;4919;48.792;9.202;2022-12-07T18:31:33;1.90;99.90
9760;DHT22;4919;48.792;9.202;2022-12-07T18:34:02;1.90;99.90
9760;DHT22;4919;48.792;9.202;2022-12-07T18:36:30;1.90;99.90